Weather observations for the past three days for
Sebastian Municipal Airport
Imperial (Metric)
Date Time (edt) Wind (mph) Vis. (mi.) Weather Sky Cond. Temperature (ºF) Relative Humidity Wind Chill (°F) Heat Index (°F) Pressure Precipitation (in)
Air Dwpt 6 hour altimeter (in) sea level (mb) 1 hr 3 hr 6 hr
Max. Min.
06 05:55 Calm 10.00 Fair CLR 66.2 66.2 100% 30 0.0
06 05:35 Calm 10.00 Fair CLR 66.2 66.2 100% 29.99 0.0
06 05:15 Calm 10.00 Fair CLR 66.2 66.2 100% 29.99 0.0
06 04:55 Calm 10.00 Fair CLR 66.2 66.2 100% 29.99 0.0
06 04:35 S 1 10.00 Fair CLR 66.2 66.2 100% 29.99 0.0
06 04:15 S 1 10.00 Fair CLR 68 68 100% 29.99 0.0
06 03:55 Calm 10.00 Fair CLR 68 68 100% 29.99 0.0
06 03:35 SE 1 10.00 Fair CLR 69.8 68 94% 29.99 0.0
06 03:15 SE 2 10.00 Fair CLR 69.8 68 94% 30 0.0
06 02:55 E 3 10.00 Fair CLR 73.4 69.8 89% 30 0.0
06 02:35 E 3 10.00 Fair CLR 73.4 69.8 89% 30 0.0
06 02:15 E 3 10.00 Fair CLR 73.4 68 83% 30.01 0.0
06 01:55 E 5 10.00 Fair CLR 73.4 69.8 75.9 73 89% 30.01 0.0
06 01:35 E 6 10.00 Fair CLR 73.4 69.8 89% 30.01 0.0
06 01:15 SE 5 10.00 Fair CLR 73.4 69.8 89% 30.02 0.0
06 00:55 E 5 10.00 Fair CLR 73.4 68 83% 30.01 0.0
06 00:35 E 7 10.00 Fair CLR 75.2 68 78% 76 30.01 0.0
06 00:15 E 7 10.00 Fair CLR 75.2 68 78% 76 30.02 0.0
05 23:55 E 6 10.00 Fair CLR 75.2 66.2 74% 77 30.02 0.0
05 23:35 E 7 10.00 Fair CLR 75.2 66.2 74% 77 30.03 0.0
05 23:15 E 6 10.00 Fair CLR 75.2 66.2 74% 77 30.03 0.0
05 22:55 E 7 10.00 Fair CLR 75.2 66.2 74% 77 30.02 0.0
05 22:35 E 10 10.00 Fair CLR 75.2 66.2 74% 77 30.02 0.0
05 22:15 E 8 10.00 Fair CLR 75.2 66.2 74% 77 30.01 0.0
05 21:55 E 9 10.00 Fair CLR 75.2 66.2 74% 77 30.01 0.0
05 21:35 E 9 10.00 Fair CLR 75.2 66.2 74% 77 30 0.0
05 21:15 E 10 10.00 Fair CLR 75.2 64.4 69% 77 30 0.0
05 20:55 E 9 10.00 Fair CLR 75.2 64.4 69% 77 29.99 0.0
05 20:35 E 9 10.00 Fair CLR 75.2 64.4 69% 77 29.99 0.0
05 20:15 E 9 10.00 Fair CLR 75.2 64.4 69% 77 29.98 0.0
05 19:55 NE 10 10.00 Fair CLR 75.2 64.4 82.6 75.7 69% 77 29.98 0.0
05 19:35 E 10 10.00 Fair CLR 77 64.4 65% 79 29.98 0.0
05 19:15 E 9 10.00 Fair CLR 77 64.4 65% 79 29.98 0.0
05 18:55 NE 13 10.00 Fair CLR 78.8 64.4 61% 81 29.99 0.0
05 18:35 NE 13 10.00 Fair CLR 78.8 66.2 65% 81 30 0.0
05 18:15 NE 10 10.00 Fair CLR 78.8 64.4 61% 81 29.99 0.0
05 17:55 NE 12 10.00 Fair CLR 80.6 64.4 58% 82 29.99 0.0
05 17:35 E 12 10.00 Fair CLR 80.6 64.4 58% 82 29.98 0.0
05 17:15 E 13 10.00 Fair CLR 80.6 64.4 58% 82 29.98 0.0
05 16:55 NE 13 10.00 Fair CLR 80.6 64.4 58% 82 29.98 0.0
05 16:35 E 14 10.00 Fair CLR 80.6 64.4 58% 82 29.98 0.0
05 16:15 NE 15 10.00 Fair CLR 82.4 66.2 58% 85 29.98 0.0
05 15:55 NE 14 G 18 10.00 Fair CLR 82.4 66.2 58% 85 29.99 0.0
05 15:35 NE 14 10.00 Fair CLR 82.4 66.2 58% 85 30 0.0
05 15:15 NE 14 G 18 10.00 Fair CLR 82.4 64.4 55% 84 30 0.0
05 14:55 NE 13 G 17 10.00 Fair CLR 82.4 64.4 55% 84 30.01 0.0
05 14:35 NE 14 10.00 Fair CLR 82.4 64.4 55% 84 30.02 0.0
05 14:15 NE 13 G 17 10.00 Fair CLR 82.4 64.4 55% 84 30.02 0.0
05 13:55 E 10 G 20 10.00 A Few Clouds FEW065 82.4 64.4 82.4 74.7 55% 84 30.02 0.0
05 13:35 E 12 10.00 Mostly Cloudy BKN065 80.6 62.6 54% 82 30.02 0.0
05 13:15 E 13 10.00 Mostly Cloudy BKN055 80.6 64.4 58% 82 30.02 0.0
05 12:55 E 14 G 17 10.00 Mostly Cloudy BKN055 80.6 64.4 58% 82 30.03 0.0
05 12:35 E 13 10.00 Partly Cloudy SCT055 82.4 64.4 55% 84 30.03 0.0
05 12:15 E 13 10.00 Fair CLR 80.6 66.2 62% 83 30.02 0.0
05 11:55 E 15 G 20 10.00 Fair CLR 80.6 66.2 62% 83 30.03 0.0
05 11:35 E 12 10.00 Fair CLR 80.6 66.2 62% 83 30.03 0.0
05 11:15 E 16 10.00 Fair CLR 80.6 68 66% 83 30.02 0.0
05 10:55 E 15 10.00 Fair CLR 78.8 68 70% 81 30.01 0.0
05 10:35 E 14 G 20 10.00 Fair CLR 78.8 68 70% 81 30.01 0.0
05 10:15 E 15 10.00 Fair CLR 78.8 66.2 65% 81 30.02 0.0
05 09:55 E 13 10.00 Fair CLR 78.8 66.2 65% 81 30.01 0.0
05 09:35 E 12 10.00 Fair CLR 78.8 66.2 65% 81 30 0.0
05 09:15 E 14 10.00 Fair CLR 77 66.2 69% 79 30 0.0
05 08:55 E 14 10.00 A Few Clouds FEW060 77 66.2 69% 79 30 0.0
05 08:35 E 12 10.00 Partly Cloudy SCT060 77 66.2 69% 79 30.01 0.0
05 08:15 E 10 10.00 Fair CLR 75.2 66.2 74% 77 30.01 0.0
05 07:35 E 9 10.00 Fair CLR 73.4 64.4 74% 29.99 0.0
05 07:15 E 9 10.00 Fair CLR 73.4 64.4 74% 29.98 0.0
05 06:55 E 8 10.00 Fair CLR 71.6 64.4 78% 29.98 0.0
05 06:35 E 9 10.00 A Few Clouds FEW060 71.6 64.4 78% 29.97 0.0
05 06:15 E 8 10.00 A Few Clouds FEW060 71.6 64.4 78% 29.96 0.0
05 05:55 E 6 10.00 Fair CLR 71.6 64.4 78% 29.96 0.0
05 05:35 E 7 10.00 Fair CLR 69.8 64.4 83% 29.96 0.0
05 05:15 E 6 10.00 Fair CLR 69.8 64.4 83% 29.96 0.0
05 04:55 E 6 10.00 Fair CLR 71.6 64.4 78% 29.95 0.0
05 04:35 E 5 10.00 Fair CLR 69.8 64.4 83% 29.95 0.0
05 04:15 E 5 10.00 Fair CLR 71.6 64.4 78% 29.95 0.0
05 03:55 E 6 10.00 Fair CLR 71.6 64.4 78% 29.94 0.0
05 03:35 E 6 10.00 Fair CLR 71.6 64.4 78% 29.95 0.0
05 03:15 E 7 10.00 Fair CLR 71.6 64.4 78% 29.96 0.0
05 02:55 E 7 10.00 Fair CLR 71.6 64.4 78% 29.96 0.0
05 02:35 E 10 10.00 Fair CLR 73.4 64.4 74% 29.96 0.0
05 02:15 E 9 10.00 Fair CLR 73.4 64.4 74% 29.97 0.0
05 01:55 E 10 10.00 Partly Cloudy SCT032 73.4 64.4 74.5 72 74% 29.98 0.0
05 01:35 E 7 10.00 Mostly Cloudy BKN032 73.4 64.4 74% 29.99 0.0
05 01:15 E 9 10.00 Partly Cloudy SCT032 73.4 64.4 74% 29.99 0.0
05 00:55 E 9 10.00 A Few Clouds FEW032 73.4 64.4 74% 29.99 0.0
05 00:35 E 8 10.00 A Few Clouds FEW032 73.4 64.4 74% 29.99 0.0
05 00:15 E 8 10.00 Partly Cloudy FEW030 SCT037 73.4 66.2 78% 30 0.0
04 23:55 E 8 10.00 Partly Cloudy FEW030 SCT035 73.4 66.2 78% 29.99 0.0
04 23:35 E 8 10.00 Partly Cloudy SCT034 73.4 66.2 78% 30 0.0
04 23:15 E 9 10.00 A Few Clouds FEW029 FEW034 73.4 66.2 78% 30.01 0.0
04 22:55 E 10 10.00 Partly Cloudy FEW029 SCT034 SCT041 73.4 66.2 78% 30 0.0
04 22:35 E 10 10.00 A Few Clouds FEW029 FEW036 73.4 66.2 78% 30 0.0
04 22:15 E 8 10.00 Partly Cloudy SCT029 SCT040 73.4 66.2 78% 30 0.0
04 21:55 E 10 10.00 Mostly Cloudy FEW038 SCT046 BKN060 73.4 66.2 78% 30 0.0
04 21:35 E 10 10.00 Overcast FEW029 SCT040 OVC060 73.4 66.2 78% 30 0.0
04 21:15 E 9 10.00 Overcast BKN027 BKN034 OVC050 73.4 66.2 78% 30 0.0
04 20:55 E 8 10.00 Overcast BKN027 OVC034 73.4 68 83% 29.99 0.0
04 20:35 E 12 10.00 Mostly Cloudy BKN029 BKN040 73.4 66.2 78% 29.99 0.0
04 20:15 E 15 G 21 10.00 Mostly Cloudy SCT029 BKN038 BKN060 73.4 66.2 78% 29.98 0.0
04 19:55 E 10 10.00 Overcast BKN039 BKN049 OVC060 75.2 66.2 79.7 74.3 74% 77 29.98 0.0
04 19:35 E 14 10.00 Overcast FEW042 OVC060 75.2 66.2 74% 77 29.97 0.0
04 19:15 E 14 10.00 Mostly Cloudy BKN060 75.2 66.2 74% 77 29.97 0.0
04 18:55 E 14 10.00 Mostly Cloudy BKN050 75.2 64.4 69% 77 29.97 0.0
04 18:35 E 13 10.00 Mostly Cloudy BKN048 75.2 64.4 69% 77 29.97 0.0
04 18:15 E 16 10.00 Mostly Cloudy FEW034 BKN044 BKN050 77 64.4 65% 79 29.97 0.0
04 17:55 E 14 G 18 10.00 Mostly Cloudy SCT034 BKN042 78.8 64.4 61% 81 29.97 0.0
04 17:35 E 16 10.00 Mostly Cloudy FEW031 BKN037 78.8 64.4 61% 81 29.98 0.0
04 17:15 NE 16 G 22 10.00 Partly Cloudy SCT032 SCT040 77 64.4 65% 79 29.98 0.0
04 16:55 E 15 G 22 10.00 A Few Clouds FEW048 78.8 64.4 61% 81 29.98 0.0
04 16:35 E 17 G 21 10.00 Mostly Cloudy FEW031 BKN041 BKN048 78.8 64.4 61% 81 29.98 0.0
04 16:15 E 14 G 23 10.00 Overcast BKN034 OVC045 77 64.4 65% 79 29.99 0.0
04 15:55 NE 20 10.00 Partly Cloudy SCT033 SCT042 78.8 66.2 65% 81 29.99 0.0
04 15:35 NE 18 G 24 10.00 Partly Cloudy SCT038 SCT048 SCT055 78.8 64.4 61% 81 30 0.0
04 15:15 E 17 G 22 10.00 Mostly Cloudy SCT039 SCT049 BKN055 77 66.2 69% 79 30 0.0
04 14:55 E 14 10.00 Mostly Cloudy BKN036 BKN048 BKN065 77 66.2 69% 79 30.01 0.0
04 14:35 NE 17 10.00 Mostly Cloudy BKN037 BKN045 BKN065 77 66.2 69% 79 30.02 0.0
04 14:15 NE 17 G 24 10.00 Overcast FEW030 BKN037 OVC049 77 66.2 69% 79 30.02 0.0
04 13:55 NE 17 G 24 10.00 Overcast SCT030 BKN035 OVC048 77 66.2 81 73.8 69% 79 30.02 0.0
04 13:35 NE 17 G 23 10.00 Overcast SCT030 BKN036 OVC050 77 66.2 69% 79 30.03 0.0
04 13:15 NE 16 G 26 10.00 Mostly Cloudy SCT034 SCT048 BKN060 78.8 66.2 65% 81 30.03 0.0
04 12:55 NE 18 G 26 10.00 Mostly Cloudy BKN060 78.8 66.2 65% 81 30.03 0.0
04 12:35 NE 17 G 23 10.00 Overcast SCT037 SCT044 OVC050 78.8 66.2 65% 81 30.04 0.0
04 12:15 NE 20 G 25 10.00 Mostly Cloudy SCT039 BKN050 BKN060 78.8 66.2 65% 81 30.03 0.0
04 11:55 NE 17 10.00 Overcast SCT035 SCT044 OVC050 77 64.4 65% 79 30.04 0.0
04 11:35 NE 17 10.00 Overcast SCT032 SCT042 OVC050 77 66.2 69% 79 30.04 0.0
04 11:15 NE 17 G 22 10.00 Overcast FEW032 BKN050 OVC055 77 66.2 69% 79 30.04 0.0
04 10:55 NE 16 G 23 10.00 Overcast FEW035 FEW042 OVC055 77 66.2 69% 79 30.04 0.0
04 10:36 NE 18 G 24 10.00 Overcast SCT043 OVC055 77 66.2 69% 79 30.03 0.0
04 10:15 NE 15 G 23 10.00 Overcast SCT033 OVC040 75.2 64.4 69% 77 30.03 0.0
04 09:55 NE 17 G 25 10.00 Mostly Cloudy FEW032 BKN038 78.8 66.2 65% 81 30.02 0.0
04 09:35 NE 12 10.00 Partly Cloudy SCT060 77 62.6 61% 79 30.02 0.0
04 09:15 N 13 10.00 Overcast SCT050 OVC060 75.2 64.4 69% 77 30.01 0.0
04 08:55 NE 13 G 18 10.00 Overcast OVC050 75.2 64.4 69% 77 30 0.0
04 08:35 NE 14 G 18 10.00 Overcast FEW033 OVC045 75.2 64.4 69% 77 30 0.0
04 08:15 NE 13 G 20 10.00 Overcast SCT032 BKN038 OVC044 73.4 64.4 74% 29.99 0.0
04 07:55 NE 13 G 21 10.00 Overcast SCT030 BKN040 OVC060 73.4 66.2 74.1 73 78% 29.99 0.0
04 07:35 NE 15 G 23 10.00 Overcast SCT031 SCT046 OVC050 73.4 64.4 74% 29.98 0.0
04 07:15 NE 14 G 20 10.00 Overcast BKN029 OVC039 73.4 64.4 74% 29.98 0.0
04 06:55 NE 13 G 22 10.00 Overcast SCT028 BKN033 OVC046 73.4 66.2 78% 29.97 0.0
04 06:35 NE 13 G 18 10.00 Overcast FEW028 OVC044 73.4 66.2 78% 29.96 0.0
04 06:15 N 13 G 17 10.00 Overcast FEW034 OVC043 73.4 66.2 78% 29.96 0.0
04 05:55 NE 13 10.00 Overcast FEW027 OVC036 73.4 66.2 78% 29.96 0.0
04 05:35 NE 13 10.00 Overcast FEW027 OVC036 73.4 66.2 78% 29.96 0.0
04 05:15 N 12 G 17 10.00 Overcast FEW029 OVC036 73.4 66.2 78% 29.96 0.0
04 04:55 NE 10 10.00 Overcast SCT029 OVC036 73.4 66.2 78% 29.96 0.0
04 04:35 N 12 G 18 10.00 Overcast FEW029 OVC034 73.4 66.2 78% 29.96 0.0
04 04:15 N 10 G 16 10.00 Overcast OVC030 73.4 66.2 78% 29.94 0.0
04 03:35 NE 14 10.00 Overcast FEW028 OVC035 73.4 66.2 78% 29.95 0.0
04 03:15 NE 10 10.00 Overcast SCT029 OVC035 73.4 66.2 78% 29.96 0.0
04 02:55 NE 12 10.00 Overcast OVC033 73.4 66.2 78% 29.97 0.0
04 02:35 NE 12 G 16 10.00 Overcast FEW027 OVC035 73.4 66.2 78% 29.98 0.0
04 02:06 NE 12 10.00 Overcast FEW027 OVC033 73.4 68 83% 29.99 0.0
04 01:35 NE 14 10.00 Overcast OVC031 73.4 66.2 78% 29.98 0.0
04 01:15 NE 12 G 17 10.00 Overcast BKN029 OVC038 73.4 66.2 78% 30 0.0
04 00:55 NE 14 10.00 Overcast SCT030 OVC038 73.4 66.2 78% 30 0.0
04 00:35 NE 12 10.00 Overcast FEW028 OVC038 73.4 66.2 78% 30.01 0.0
04 00:15 E 13 10.00 Overcast SCT032 OVC038 73.4 66.2 78% 30.01 0.0
03 23:55 NE 14 10.00 Overcast OVC035 73.4 66.2 78% 30.01 0.0
03 23:35 NE 13 10.00 Overcast FEW027 OVC035 73.4 66.2 78% 30.02 0.0
03 23:15 E 13 10.00 Overcast BKN029 OVC037 73.4 66.2 78% 30.02 0.0
03 22:55 NE 13 10.00 Light Drizzle BKN029 OVC035 73.4 66.2 78% 30.02 0.0
03 22:35 NE 17 10.00 Overcast BKN030 OVC034 73.4 66.2 78% 30.02 0.0
03 22:15 NE 14 10.00 Overcast OVC028 73.4 66.2 78% 30.02 0.0
03 21:55 NE 15 10.00 Overcast OVC028 73.4 66.2 78% 30.01 0.0
03 21:35 E 13 10.00 Overcast BKN028 OVC035 73.4 66.2 78% 30.01 0.0
03 21:15 E 9 10.00 Overcast OVC032 73.4 66.2 78% 30 0.0
03 20:55 NE 14 10.00 Light Drizzle BKN027 OVC035 73.4 66.2 78% 30 0.0
03 20:35 NE 10 10.00 Overcast BKN027 OVC036 73.4 66.2 78% 30 0.0
03 20:15 E 10 10.00 Overcast BKN027 OVC038 73.4 66.2 78% 29.99 0.0
03 19:55 NE 9 10.00 Overcast FEW029 OVC038 73.4 66.2 75 72 78% 29.99 0.0
03 19:35 NE 10 10.00 Overcast FEW029 OVC036 73.4 66.2 78% 29.99 0.0
03 19:15 NE 12 10.00 Overcast OVC031 73.4 66.2 78% 29.98 0.0
03 18:56 NE 10 10.00 Overcast OVC030 73.4 66.2 78% 29.98 0.0
03 18:35 NE 14 10.00 Overcast OVC030 73.4 66.2 78% 29.98 0.0
03 18:15 NE 12 10.00 Overcast OVC032 73.4 66.2 78% 29.98 0.0
03 17:55 NE 10 10.00 Overcast OVC034 73.4 64.4 74% 29.99 0.0
03 17:35 NE 12 10.00 Overcast SCT030 OVC038 73.4 66.2 78% 29.98 0.0
03 17:16 NE 13 10.00 Overcast BKN032 OVC038 73.4 66.2 78% 29.99 0.0
03 16:55 NE 9 10.00 Overcast BKN032 OVC038 73.4 66.2 78% 29.99 0.0
03 16:35 NE 10 10.00 Overcast OVC033 73.4 64.4 74% 30 0.0
03 16:15 NE 10 G 17 10.00 Overcast BKN030 OVC035 73.4 66.2 78% 30 0.0
03 15:55 NE 10 10.00 Overcast FEW030 SCT036 OVC043 73.4 66.2 78% 30 0.0
03 15:35 NE 10 10.00 Overcast OVC041 75.2 66.2 74% 77 30 0.0
03 15:15 NE 13 10.00 Overcast OVC041 75.2 66.2 74% 77 30.01 0.0
03 14:35 NE 9 10.00 Overcast FEW022 FEW028 OVC040 73.4 66.2 78% 30.03 0.0
03 14:15 NE 10 10.00 Light Drizzle SCT023 OVC033 73.4 68 83% 30.04 0.0
03 13:55 NE 13 10.00 Overcast OVC031 71.6 66.2 73 69.3 83% 30.04 0.0
03 13:35 NE 13 10.00 Overcast FEW023 OVC031 71.6 66.2 83% 30.04 0.0
03 13:15 N 14 10.00 Light Drizzle OVC027 73.4 66.2 78% 30.04 0.0
03 12:55 N 9 10.00 Overcast OVC030 73.4 66.2 78% 30.04 0.0
03 12:35 NE 13 G 20 10.00 Overcast OVC027 73.4 66.2 78% 30.04 0.0
03 12:15 NE 14 10.00 Overcast OVC024 71.6 68 88% 30.05 0.0
03 11:55 NE 12 G 16 10.00 Light Drizzle SCT017 OVC025 69.8 68 94% 30.05 0.0 0.01
03 11:35 N 7 G 17 4.00 Light Drizzle Fog/Mist BKN017 BKN023 OVC028 69.8 68 94% 30.05 0.0
03 11:15 NE 14 G 21 5.00 Light Drizzle Fog/Mist BKN020 OVC027 69.8 68 94% 30.05 0.0
03 10:55 N 8 G 16 9.00 Light Drizzle BKN022 OVC028 69.8 68 94% 30.05 0.0
03 10:35 NE 10 6.00 Light Drizzle Fog/Mist OVC025 71.6 68 88% 30.04 0.0
03 10:15 N 10 10.00 Overcast OVC026 71.6 66.2 83% 30.03 0.0
03 09:55 N 12 10.00 Overcast OVC026 71.6 66.2 83% 30.02 0.0
03 09:35 N 10 G 18 10.00 Light Drizzle OVC026 71.6 66.2 83% 30.01 0.0
03 09:15 N 13 G 20 10.00 Light Drizzle OVC022 71.6 66.2 83% 30.01 0.0
03 08:35 N 14 G 20 10.00 Overcast BKN016 OVC022 69.8 68 94% 30 0.0
03 08:15 N 12 10.00 Overcast BKN016 OVC022 69.8 68 94% 29.99 0.0
03 07:55 N 10 10.00 Overcast BKN015 OVC020 69.8 68 70.9 68 94% 29.98 0.0
03 07:35 N 13 10.00 Overcast OVC015 69.8 68 94% 29.98 0.0
03 07:15 N 12 G 23 10.00 Overcast OVC013 68 68 100% 29.97 0.0
03 06:55 N 16 10.00 Overcast BKN013 OVC019 69.8 68 94% 29.97 0.0
03 06:35 N 10 10.00 Overcast OVC018 69.8 68 94% 29.96 0.0
03 06:15 N 9 10.00 Overcast FEW010 BKN019 OVC035 68 68 100% 29.96 0.0
Date Time (edt) Wind (mph) Vis. (mi.) Weather Sky Cond. Air Dwpt Max. Min. Relative Humidity Wind Chill (°F) Heat Index (°F) altimeter (in) sea level (mb) 1 hr 3 hr 6 hr
6 hour
Temperature (ºF) Pressure Precipitation (in)